Time;durP1;ratioP1;P1;durP2;ratioP2;P2;SDS_P1;SDS_P2;PMS_P1;PMS_P2;Temp;Humidity;BMP_temperature;BMP_pressure;BME280_temperature;BME280_humidity;BME280_pressure;Samples;Min_cycle;Max_cycle;Signal;HPM_P1;HPM_P2
2023/10/24 00:00:14;;;;;;;15.40;11.27;;;10.00;99.90;;;;;;5094688;28;20050;-68
2023/10/24 00:02:40;;;;;;;15.00;10.85;;;10.00;99.90;;;;;;5094565;28;20036;-68
2023/10/24 00:05:06;;;;;;;15.85;10.48;;;10.00;99.90;;;;;;5093571;28;20055;-68
2023/10/24 00:07:32;;;;;;;16.70;11.50;;;10.00;99.90;;;;;;5094991;28;20390;-68
2023/10/24 00:09:57;;;;;;;18.60;11.30;;;9.90;99.90;;;;;;5092819;28;20066;-74
2023/10/24 00:12:23;;;;;;;24.65;10.82;;;9.90;99.90;;;;;;5094230;28;20055;-69
2023/10/24 00:14:49;;;;;;;16.35;11.48;;;9.90;99.90;;;;;;5094352;28;20554;-69
2023/10/24 00:17:14;;;;;;;15.20;11.02;;;10.00;99.90;;;;;;5094324;28;20481;-70
2023/10/24 00:19:40;;;;;;;17.23;10.52;;;10.00;99.90;;;;;;5076103;28;20119;-69
2023/10/24 00:22:06;;;;;;;14.57;10.68;;;10.00;99.90;;;;;;5088579;28;20078;-70
2023/10/24 00:24:32;;;;;;;17.92;10.23;;;10.00;99.90;;;;;;5081214;28;20048;-69
2023/10/24 00:26:57;;;;;;;15.20;11.02;;;10.00;99.90;;;;;;5073850;28;20135;-69
2023/10/24 00:29:23;;;;;;;16.40;11.55;;;10.00;99.90;;;;;;5085471;28;20050;-69
2023/10/24 00:31:49;;;;;;;17.98;11.80;;;10.00;99.90;;;;;;5083198;28;20094;-69
2023/10/24 00:34:16;;;;;;;19.52;11.52;;;10.00;99.90;;;;;;5056487;28;20080;-70
2023/10/24 00:36:43;;;;;;;15.65;11.35;;;10.00;99.90;;;;;;5086897;28;20044;-70
2023/10/24 00:39:09;;;;;;;16.13;11.55;;;10.00;99.90;;;;;;5085093;28;20553;-72
2023/10/24 00:41:35;;;;;;;15.40;10.85;;;10.00;99.90;;;;;;5085311;28;20120;-69
2023/10/24 00:44:01;;;;;;;14.80;10.52;;;10.00;99.90;;;;;;5076189;28;20852;-70
2023/10/24 00:46:28;;;;;;;16.55;10.98;;;10.00;99.90;;;;;;5083594;28;20534;-69
2023/10/24 00:48:54;;;;;;;16.27;10.57;;;10.00;99.90;;;;;;5087783;28;20123;-70
2023/10/24 00:51:21;;;;;;;16.38;10.55;;;10.00;99.90;;;;;;5080587;28;20052;-70
2023/10/24 00:53:48;;;;;;;18.83;11.32;;;10.00;99.90;;;;;;5079157;28;20079;-69
2023/10/24 00:56:15;;;;;;;17.63;10.43;;;10.00;99.90;;;;;;5073921;28;20084;-70
2023/10/24 00:58:42;;;;;;;20.08;11.50;;;10.00;99.90;;;;;;5073760;28;20119;-70
2023/10/24 01:01:12;;;;;;;16.33;10.98;;;10.00;99.90;;;;;;5079252;28;20485;-70
2023/10/24 01:03:38;;;;;;;18.77;11.02;;;10.00;99.90;;;;;;5081662;28;20036;-69
2023/10/24 01:06:06;;;;;;;18.95;12.65;;;10.00;99.90;;;;;;5074141;28;20076;-70
2023/10/24 01:08:32;;;;;;;16.50;11.93;;;10.00;99.90;;;;;;5073674;28;20457;-70
2023/10/24 01:10:57;;;;;;;17.75;11.15;;;10.00;99.90;;;;;;5084964;28;20145;-71
2023/10/24 01:13:23;;;;;;;17.52;10.65;;;10.00;99.90;;;;;;5079542;28;20098;-71
2023/10/24 01:15:49;;;;;;;19.08;11.40;;;10.00;99.90;;;;;;5083644;28;20561;-71
2023/10/24 01:18:15;;;;;;;19.33;11.13;;;10.00;99.90;;;;;;5074268;28;20044;-69
2023/10/24 01:20:40;;;;;;;18.02;11.27;;;10.00;99.90;;;;;;5080972;28;20481;-69
2023/10/24 01:23:10;;;;;;;16.25;11.07;;;9.90;99.90;;;;;;5075695;28;20079;-69
2023/10/24 01:25:40;;;;;;;19.83;11.38;;;10.00;99.90;;;;;;5081407;28;20044;-69
2023/10/24 01:28:07;;;;;;;16.45;11.32;;;10.00;99.90;;;;;;5076543;28;20128;-69
2023/10/24 01:30:35;;;;;;;16.38;11.63;;;9.90;99.90;;;;;;5074867;28;20052;-68
2023/10/24 01:33:00;;;;;;;18.30;11.63;;;9.90;99.90;;;;;;5078844;28;20494;-68
2023/10/24 01:35:26;;;;;;;16.85;11.68;;;10.00;99.90;;;;;;5077307;28;20094;-69
2023/10/24 01:37:52;;;;;;;18.25;11.23;;;10.00;99.90;;;;;;5081051;28;20050;-69
2023/10/24 01:40:18;;;;;;;16.52;12.52;;;10.00;99.90;;;;;;5085805;28;20075;-69
2023/10/24 01:42:43;;;;;;;17.30;12.45;;;9.90;99.90;;;;;;5088743;28;20039;-69
2023/10/24 01:45:09;;;;;;;19.15;10.98;;;10.00;99.90;;;;;;5076661;28;20040;-70
2023/10/24 01:47:35;;;;;;;17.85;12.02;;;9.90;99.90;;;;;;5076133;28;20040;-69
2023/10/24 01:50:02;;;;;;;19.20;12.23;;;9.90;99.90;;;;;;5077717;28;20505;-69
2023/10/24 01:52:28;;;;;;;18.67;12.77;;;9.90;99.90;;;;;;5084158;28;20087;-69
2023/10/24 01:54:54;;;;;;;18.48;12.88;;;9.90;99.90;;;;;;5080543;28;20099;-69
2023/10/24 01:57:19;;;;;;;20.52;14.30;;;9.90;99.90;;;;;;5071208;28;20390;-69
2023/10/24 01:59:45;;;;;;;18.15;13.20;;;9.90;99.90;;;;;;5073942;28;20052;-71
2023/10/24 02:02:11;;;;;;;19.10;13.18;;;9.90;99.90;;;;;;5077048;28;20032;-69
2023/10/24 02:04:37;;;;;;;19.75;13.48;;;9.90;99.90;;;;;;5083497;28;20569;-69
2023/10/24 02:07:02;;;;;;;19.27;12.15;;;9.90;99.90;;;;;;5071790;28;20052;-69
2023/10/24 02:09:30;;;;;;;19.00;13.40;;;9.90;99.90;;;;;;5072217;28;20078;-69
2023/10/24 02:12:05;;;;;;;22.38;14.75;;;9.90;99.90;;;;;;5071396;28;20064;-71
2023/10/24 02:14:31;;;;;;;18.92;12.40;;;9.90;99.90;;;;;;5086395;28;20044;-69
2023/10/24 02:16:57;;;;;;;21.83;13.07;;;9.90;99.90;;;;;;5090300;28;20126;-69
2023/10/24 02:19:24;;;;;;;19.77;13.20;;;9.90;99.90;;;;;;5078048;28;20066;-68
2023/10/24 02:21:50;;;;;;;21.30;14.18;;;9.90;99.90;;;;;;5082813;28;20044;-68
2023/10/24 02:24:15;;;;;;;24.23;14.32;;;9.90;99.90;;;;;;5086051;28;20067;-69
2023/10/24 02:26:41;;;;;;;19.45;12.60;;;9.90;99.90;;;;;;5085090;28;20068;-69
2023/10/24 02:29:07;;;;;;;19.25;12.93;;;9.90;99.90;;;;;;5080097;28;20489;-69
2023/10/24 02:31:33;;;;;;;25.05;13.85;;;9.90;99.90;;;;;;5086075;28;20059;-69
2023/10/24 02:33:58;;;;;;;20.65;14.00;;;9.90;99.90;;;;;;5078367;28;20046;-69
2023/10/24 02:36:24;;;;;;;17.20;12.77;;;9.90;99.90;;;;;;5077169;28;20044;-69
2023/10/24 02:38:50;;;;;;;15.80;10.95;;;9.90;99.90;;;;;;5077510;28;20056;-69
2023/10/24 02:41:15;;;;;;;19.27;12.32;;;9.90;99.90;;;;;;5091143;28;20048;-69
2023/10/24 02:43:41;;;;;;;19.42;13.25;;;10.00;99.90;;;;;;5091220;28;20051;-69
2023/10/24 02:46:07;;;;;;;19.75;12.82;;;10.00;99.90;;;;;;5091532;28;20432;-69
2023/10/24 02:48:33;;;;;;;19.10;12.07;;;10.00;99.90;;;;;;5091541;28;20047;-69
2023/10/24 02:51:00;;;;;;;17.88;12.65;;;10.00;99.90;;;;;;5074424;28;20048;-74
2023/10/24 02:53:25;;;;;;;19.73;13.48;;;10.00;99.90;;;;;;5078829;28;20054;-69
2023/10/24 02:55:51;;;;;;;19.27;13.10;;;10.00;99.90;;;;;;5091232;28;20047;-69
2023/10/24 02:58:18;;;;;;;19.20;12.65;;;10.00;99.90;;;;;;5089673;28;20055;-69
2023/10/24 03:00:45;;;;;;;17.65;13.10;;;10.00;99.90;;;;;;5091617;28;20043;-69
2023/10/24 03:03:12;;;;;;;21.42;14.18;;;10.10;99.90;;;;;;5090637;28;20110;-69
2023/10/24 03:05:37;;;;;;;19.17;14.10;;;10.10;99.90;;;;;;5091351;28;20047;-69
2023/10/24 03:08:06;;;;;;;15.95;10.70;;;10.00;99.90;;;;;;5090980;28;20124;-69
2023/10/24 03:10:37;;;;;;;20.92;13.15;;;10.10;99.90;;;;;;5091223;28;20047;-69
2023/10/24 03:13:03;;;;;;;18.50;11.68;;;10.10;99.90;;;;;;5091180;28;20139;-69
2023/10/24 03:15:29;;;;;;;18.38;11.82;;;10.10;99.90;;;;;;5091210;28;20541;-69
2023/10/24 03:17:54;;;;;;;20.80;13.07;;;10.20;99.90;;;;;;5091418;28;20040;-68
2023/10/24 03:20:20;;;;;;;19.27;11.82;;;10.20;99.90;;;;;;5090556;28;20047;-69
2023/10/24 03:22:46;;;;;;;18.92;12.02;;;10.20;99.90;;;;;;5091442;28;20044;-68
2023/10/24 03:25:11;;;;;;;18.90;12.65;;;10.20;99.90;;;;;;5091077;28;20051;-68
2023/10/24 03:27:37;;;;;;;26.38;13.73;;;10.20;99.90;;;;;;5090793;28;20087;-68
2023/10/24 03:30:03;;;;;;;19.63;11.30;;;10.20;99.90;;;;;;5092078;28;20123;-74
2023/10/24 03:32:30;;;;;;;19.58;11.40;;;10.20;99.90;;;;;;5081801;28;20055;-69
2023/10/24 03:34:56;;;;;;;19.98;11.98;;;10.20;99.90;;;;;;5075246;28;20059;-68
2023/10/24 03:37:22;;;;;;;15.15;10.00;;;10.30;99.90;;;;;;5081050;28;20041;-69
2023/10/24 03:39:48;;;;;;;16.02;10.48;;;10.30;99.90;;;;;;5075155;28;20179;-68
2023/10/24 03:42:14;;;;;;;18.02;12.80;;;10.30;99.90;;;;;;5084131;28;20062;-69
2023/10/24 03:44:41;;;;;;;20.63;14.07;;;10.30;99.90;;;;;;5094865;28;20120;-69
2023/10/24 03:47:07;;;;;;;19.70;12.85;;;10.30;99.90;;;;;;5092995;28;20040;-74
2023/10/24 03:49:33;;;;;;;13.65;10.10;;;10.30;99.90;;;;;;5085531;28;20085;-69
2023/10/24 03:51:59;;;;;;;18.73;11.52;;;10.40;99.90;;;;;;5074861;28;20047;-69
2023/10/24 03:54:24;;;;;;;19.45;13.02;;;10.40;99.90;;;;;;5092920;28;20044;-69
2023/10/24 03:56:50;;;;;;;19.05;11.50;;;10.30;99.90;;;;;;5088725;28;20047;-69
2023/10/24 03:59:16;;;;;;;20.33;12.80;;;10.40;99.90;;;;;;5079029;28;20080;-69
2023/10/24 04:01:41;;;;;;;14.07;10.25;;;10.40;99.90;;;;;;5079305;28;20061;-69
2023/10/24 04:04:08;;;;;;;21.33;12.25;;;10.50;99.90;;;;;;5090201;28;20051;-73
2023/10/24 04:06:36;;;;;;;18.77;10.75;;;10.40;99.90;;;;;;5082870;28;20048;-69
2023/10/24 04:09:05;;;;;;;18.63;11.65;;;10.50;99.90;;;;;;5087753;28;20071;-69
2023/10/24 04:11:35;;;;;;;17.92;11.95;;;10.50;99.90;;;;;;5083767;28;20045;-69
2023/10/24 04:14:01;;;;;;;20.65;11.70;;;10.50;99.90;;;;;;5086838;28;20044;-70
2023/10/24 04:16:27;;;;;;;23.73;13.43;;;10.50;99.90;;;;;;5082922;28;20058;-70
2023/10/24 04:18:53;;;;;;;20.45;12.65;;;10.50;99.90;;;;;;5094118;28;20036;-69
2023/10/24 04:21:19;;;;;;;21.73;13.52;;;10.50;99.90;;;;;;5074341;28;20041;-69
2023/10/24 04:23:45;;;;;;;18.20;10.80;;;10.50;99.90;;;;;;5093922;28;20459;-69
2023/10/24 04:26:11;;;;;;;17.02;12.52;;;10.50;99.90;;;;;;5094277;28;20040;-75
2023/10/24 04:28:38;;;;;;;22.38;13.57;;;10.50;99.90;;;;;;5093901;28;20048;-68
2023/10/24 04:31:04;;;;;;;22.10;12.40;;;10.60;99.90;;;;;;5087137;28;20036;-69
2023/10/24 04:33:30;;;;;;;20.17;12.07;;;10.50;99.90;;;;;;5076440;28;20040;-68
2023/10/24 04:35:56;;;;;;;19.77;13.07;;;10.60;99.90;;;;;;5084689;28;20083;-68
2023/10/24 04:38:22;;;;;;;18.38;13.10;;;10.60;99.90;;;;;;5074052;28;20083;-69
2023/10/24 04:40:50;;;;;;;20.15;13.50;;;10.60;99.90;;;;;;5086600;28;20399;-68
2023/10/24 04:43:16;;;;;;;24.33;13.93;;;10.60;99.90;;;;;;5090111;28;20524;-69
2023/10/24 04:45:42;;;;;;;26.15;15.15;;;10.60;99.90;;;;;;5073949;28;20036;-68
2023/10/24 04:48:07;;;;;;;28.10;15.15;;;10.60;99.90;;;;;;5078952;28;20048;-69
2023/10/24 04:50:38;;;;;;;23.55;15.07;;;10.70;99.90;;;;;;5084584;28;20044;-69
2023/10/24 04:53:05;;;;;;;25.15;14.68;;;10.70;99.90;;;;;;5085934;28;20047;-69
2023/10/24 04:55:31;;;;;;;23.15;14.75;;;10.70;99.90;;;;;;5076319;28;20070;-69
2023/10/24 04:57:57;;;;;;;26.90;14.32;;;10.70;99.90;;;;;;5072432;28;20087;-69
2023/10/24 05:00:24;;;;;;;21.90;13.50;;;10.70;99.90;;;;;;5086934;28;20401;-69
2023/10/24 05:02:51;;;;;;;27.83;15.00;;;10.70;99.90;;;;;;5074513;28;20372;-69
2023/10/24 05:05:17;;;;;;;21.73;13.75;;;10.80;99.90;;;;;;5073183;28;20040;-74
2023/10/24 05:07:43;;;;;;;22.92;14.80;;;10.70;99.90;;;;;;5073332;28;20046;-69
2023/10/24 05:10:10;;;;;;;19.85;13.10;;;10.80;99.90;;;;;;5076154;28;20048;-69
2023/10/24 05:12:36;;;;;;;20.85;12.63;;;10.80;99.90;;;;;;5084445;28;20076;-68
2023/10/24 05:15:02;;;;;;;21.55;13.45;;;10.80;99.90;;;;;;5083630;28;20494;-69
2023/10/24 05:17:30;;;;;;;22.83;13.15;;;10.80;99.90;;;;;;5092484;28;20043;-69
2023/10/24 05:19:59;;;;;;;20.67;12.75;;;10.80;99.90;;;;;;5093654;28;20151;-69
2023/10/24 05:22:25;;;;;;;19.85;13.63;;;10.80;99.90;;;;;;5092322;28;20043;-73
2023/10/24 05:24:51;;;;;;;16.63;10.50;;;10.80;99.90;;;;;;5092675;28;20055;-68
2023/10/24 05:27:17;;;;;;;18.05;13.18;;;10.80;99.90;;;;;;5093027;28;20055;-68
2023/10/24 05:29:43;;;;;;;20.48;12.43;;;10.90;99.90;;;;;;5092488;28;20044;-69
2023/10/24 05:32:09;;;;;;;20.13;13.13;;;10.90;99.90;;;;;;5086577;28;20482;-68
2023/10/24 05:34:34;;;;;;;19.25;13.23;;;10.90;99.90;;;;;;5082748;28;20048;-68
2023/10/24 05:37:00;;;;;;;19.48;12.15;;;10.90;99.90;;;;;;5078677;28;20048;-68
2023/10/24 05:39:30;;;;;;;20.45;13.30;;;10.90;99.90;;;;;;5090526;28;20048;-69
2023/10/24 05:41:55;;;;;;;18.88;12.65;;;10.90;99.90;;;;;;5080181;28;20052;-69
2023/10/24 05:44:21;;;;;;;20.25;12.35;;;10.90;99.90;;;;;;5077591;28;20543;-75
2023/10/24 05:46:48;;;;;;;20.15;12.43;;;10.90;99.90;;;;;;5072414;28;20132;-69
2023/10/24 05:49:14;;;;;;;15.13;11.73;;;10.90;99.90;;;;;;5071484;28;20115;-69
2023/10/24 05:51:40;;;;;;;16.83;12.55;;;10.80;99.90;;;;;;5077948;28;20120;-74
2023/10/24 05:54:05;;;;;;;20.83;12.98;;;10.90;99.90;;;;;;5073342;28;20479;-68
2023/10/24 05:56:32;;;;;;;18.65;12.98;;;10.90;99.90;;;;;;5073547;28;20040;-69
2023/10/24 05:58:58;;;;;;;19.90;12.38;;;10.90;99.90;;;;;;5075097;28;20123;-69
2023/10/24 06:01:24;;;;;;;19.42;13.10;;;10.90;99.90;;;;;;5083353;28;20140;-76
2023/10/24 06:03:49;;;;;;;18.27;13.27;;;10.90;99.90;;;;;;5091904;28;20040;-68
2023/10/24 06:06:16;;;;;;;20.15;12.98;;;10.90;99.90;;;;;;5090835;28;20047;-68
2023/10/24 06:08:42;;;;;;;21.55;13.45;;;10.80;99.90;;;;;;5092006;28;20140;-68
2023/10/24 06:11:07;;;;;;;20.75;13.70;;;10.90;99.90;;;;;;5088988;28;20481;-68
2023/10/24 06:13:33;;;;;;;18.02;13.57;;;10.90;99.90;;;;;;5090218;28;20143;-73
2023/10/24 06:16:12;;;;;;;18.52;13.45;;;10.90;99.90;;;;;;5091342;28;20044;-70
2023/10/24 06:18:38;;;;;;;21.88;13.95;;;10.90;99.90;;;;;;5091560;28;20044;-70
2023/10/24 06:21:05;;;;;;;22.23;13.55;;;10.90;99.90;;;;;;5091657;28;20040;-70
2023/10/24 06:23:32;;;;;;;16.17;12.77;;;10.90;99.90;;;;;;5091171;28;20473;-70
2023/10/24 06:25:58;;;;;;;20.42;13.35;;;11.00;99.90;;;;;;5091293;28;20040;-70
2023/10/24 06:28:25;;;;;;;18.00;13.23;;;11.00;99.90;;;;;;5091585;28;20075;-70
2023/10/24 06:30:58;;;;;;;18.27;14.13;;;11.00;99.90;;;;;;5090929;28;20055;-70
2023/10/24 06:33:23;;;;;;;17.85;12.73;;;11.00;99.90;;;;;;5074970;28;20493;-70
2023/10/24 06:35:49;;;;;;;17.17;12.43;;;11.00;99.90;;;;;;5071382;28;20046;-70
2023/10/24 06:38:15;;;;;;;17.27;12.50;;;11.00;99.90;;;;;;5074003;28;20036;-70
2023/10/24 06:40:45;;;;;;;19.98;14.18;;;11.00;99.90;;;;;;5088920;28;20062;-70
2023/10/24 06:43:11;;;;;;;17.85;13.40;;;11.00;99.90;;;;;;5075499;28;20109;-71
2023/10/24 06:45:37;;;;;;;17.42;12.40;;;11.10;99.90;;;;;;5070656;28;20120;-71
2023/10/24 06:48:03;;;;;;;19.42;11.88;;;11.00;99.90;;;;;;5071675;28;20506;-71
2023/10/24 06:50:28;;;;;;;18.50;12.77;;;11.10;99.90;;;;;;5084324;28;20040;-71
2023/10/24 06:52:54;;;;;;;17.13;11.90;;;11.10;99.90;;;;;;5081224;28;20033;-71
2023/10/24 06:55:20;;;;;;;17.42;11.68;;;11.10;99.90;;;;;;5088077;28;20171;-70
2023/10/24 06:57:46;;;;;;;14.98;10.95;;;11.10;99.90;;;;;;5071178;28;20043;-70
2023/10/24 07:00:12;;;;;;;19.13;11.88;;;11.10;99.90;;;;;;5071397;28;20079;-70
2023/10/24 07:02:39;;;;;;;15.85;10.88;;;11.10;99.90;;;;;;5083627;28;20082;-71
2023/10/24 07:05:05;;;;;;;16.02;11.40;;;11.10;99.90;;;;;;5093729;28;20119;-71
2023/10/24 07:07:30;;;;;;;15.10;10.13;;;11.10;99.90;;;;;;5095403;28;20074;-71
2023/10/24 07:09:56;;;;;;;15.00;10.55;;;11.10;99.90;;;;;;5095008;28;20118;-72
2023/10/24 07:12:22;;;;;;;13.32;10.27;;;11.10;99.90;;;;;;5093626;28;20169;-72
2023/10/24 07:14:52;;;;;;;12.10;8.60;;;11.20;99.90;;;;;;5094827;28;20413;-71
2023/10/24 07:17:17;;;;;;;11.98;9.23;;;11.20;99.90;;;;;;5094948;28;20059;-71
2023/10/24 07:19:43;;;;;;;12.00;9.43;;;11.10;99.90;;;;;;5095442;28;20036;-72
2023/10/24 07:22:09;;;;;;;14.38;9.75;;;11.10;99.90;;;;;;5095843;28;20044;-72
2023/10/24 07:24:34;;;;;;;13.43;10.27;;;11.10;99.90;;;;;;5090302;28;20047;-75
2023/10/24 07:27:00;;;;;;;11.35;9.15;;;11.10;99.90;;;;;;5085815;28;20047;-72
2023/10/24 07:29:28;;;;;;;13.43;9.20;;;11.20;99.90;;;;;;5095145;28;20040;-71
2023/10/24 07:31:54;;;;;;;15.77;10.85;;;11.10;99.90;;;;;;5076345;28;20371;-71
2023/10/24 07:34:19;;;;;;;13.95;8.73;;;11.20;99.90;;;;;;5085090;28;20047;-71
2023/10/24 07:36:45;;;;;;;12.05;10.35;;;11.10;99.90;;;;;;5078366;28;20071;-72
2023/10/24 07:39:14;;;;;;;11.70;9.02;;;11.20;99.90;;;;;;5075683;28;20177;-70
2023/10/24 07:41:40;;;;;;;16.77;10.63;;;11.10;99.90;;;;;;5079695;28;20514;-74
2023/10/24 07:44:06;;;;;;;13.55;10.80;;;11.20;99.90;;;;;;5081294;28;20055;-70
2023/10/24 07:46:31;;;;;;;13.00;10.57;;;11.20;99.90;;;;;;5095157;28;20097;-70
2023/10/24 07:49:00;;;;;;;12.32;10.02;;;11.20;99.90;;;;;;5094397;28;20151;-70
2023/10/24 07:51:27;;;;;;;15.48;10.77;;;11.20;99.90;;;;;;5094837;28;20047;-71
2023/10/24 07:53:54;;;;;;;14.68;10.25;;;11.20;99.90;;;;;;5093911;28;20485;-70
2023/10/24 07:56:20;;;;;;;14.82;9.60;;;11.10;99.90;;;;;;5094793;28;20158;-70
2023/10/24 07:58:46;;;;;;;16.42;9.48;;;11.20;99.90;;;;;;5094399;28;20075;-70
2023/10/24 08:01:11;;;;;;;13.45;10.10;;;11.20;99.90;;;;;;5095159;28;20048;-69
2023/10/24 08:03:37;;;;;;;13.57;9.52;;;11.20;99.90;;;;;;5087323;28;20036;-70
2023/10/24 08:06:04;;;;;;;15.57;10.00;;;11.20;99.90;;;;;;5087008;28;20151;-71
2023/10/24 08:08:29;;;;;;;15.13;9.23;;;11.20;99.90;;;;;;5093877;28;20091;-69
2023/10/24 08:10:55;;;;;;;13.35;9.18;;;11.20;99.90;;;;;;5091574;28;20072;-70
2023/10/24 08:13:21;;;;;;;14.20;9.45;;;11.20;99.90;;;;;;5091467;28;20105;-69
2023/10/24 08:15:51;;;;;;;13.10;9.30;;;11.20;99.90;;;;;;5090264;28;20618;-69
2023/10/24 08:18:20;;;;;;;13.65;9.15;;;11.20;99.90;;;;;;5086568;28;20067;-69
2023/10/24 08:20:46;;;;;;;12.85;9.38;;;11.20;99.90;;;;;;5086884;28;20431;-70
2023/10/24 08:23:12;;;;;;;14.57;8.75;;;11.30;99.90;;;;;;5082807;28;20037;-69
2023/10/24 08:25:38;;;;;;;13.68;9.40;;;11.30;99.90;;;;;;5084614;28;20130;-69
2023/10/24 08:28:04;;;;;;;14.48;8.70;;;11.20;99.90;;;;;;5087256;28;20123;-69
2023/10/24 08:30:31;;;;;;;11.82;9.23;;;11.30;99.90;;;;;;5086080;28;20132;-68
2023/10/24 08:32:58;;;;;;;13.98;9.50;;;11.30;99.90;;;;;;5080302;28;20387;-68
2023/10/24 08:35:23;;;;;;;12.40;7.30;;;11.20;99.90;;;;;;5088183;28;20080;-68
2023/10/24 08:37:49;;;;;;;12.20;8.48;;;11.30;99.90;;;;;;5076713;28;20084;-69
2023/10/24 08:40:15;;;;;;;12.02;7.13;;;11.30;99.90;;;;;;5077059;28;20379;-69
2023/10/24 08:42:42;;;;;;;12.75;9.20;;;11.30;99.90;;;;;;5088392;28;20111;-69
2023/10/24 08:45:09;;;;;;;13.85;8.90;;;11.30;99.90;;;;;;5091421;28;20156;-69
2023/10/24 08:47:36;;;;;;;13.63;8.60;;;11.30;99.90;;;;;;5073218;28;20052;-68
2023/10/24 08:50:02;;;;;;;13.57;8.35;;;11.30;99.90;;;;;;5074835;28;20064;-69
2023/10/24 08:52:30;;;;;;;15.05;9.55;;;11.30;99.90;;;;;;5093476;28;20036;-69
2023/10/24 08:55:03;;;;;;;13.10;9.55;;;11.20;99.90;;;;;;5089810;28;20040;-68
2023/10/24 08:57:33;;;;;;;14.60;9.80;;;11.20;99.90;;;;;;5074972;28;20075;-69
2023/10/24 09:00:00;;;;;;;14.80;10.57;;;11.30;99.90;;;;;;5073692;28;20045;-68
2023/10/24 09:02:26;;;;;;;13.95;9.68;;;11.30;99.90;;;;;;5076291;28;20039;-68
2023/10/24 09:04:52;;;;;;;14.00;9.70;;;11.30;99.90;;;;;;5093119;28;20055;-67
2023/10/24 09:07:18;;;;;;;15.45;10.02;;;11.30;99.90;;;;;;5093662;28;20547;-68
2023/10/24 09:09:43;;;;;;;12.63;9.90;;;11.30;99.90;;;;;;5093321;28;20044;-67
2023/10/24 09:12:14;;;;;;;14.35;10.23;;;11.30;99.90;;;;;;5092803;28;20401;-67
2023/10/24 09:14:44;;;;;;;14.50;10.10;;;11.30;99.90;;;;;;5093426;28;20048;-67
2023/10/24 09:17:11;;;;;;;15.10;10.65;;;11.30;99.90;;;;;;5092349;28;20065;-67
2023/10/24 09:19:40;;;;;;;14.10;10.05;;;11.30;99.90;;;;;;5079031;28;20123;-67
2023/10/24 09:22:05;;;;;;;13.98;9.77;;;11.30;99.90;;;;;;5090127;28;20036;-67
2023/10/24 09:24:32;;;;;;;15.70;10.13;;;11.30;99.90;;;;;;5093317;28;20117;-67
2023/10/24 09:26:59;;;;;;;14.60;10.57;;;11.30;99.90;;;;;;5091628;28;20450;-67
2023/10/24 09:29:27;;;;;;;12.55;9.07;;;11.30;99.90;;;;;;5092569;28;20397;-66
2023/10/24 09:31:54;;;;;;;14.95;10.73;;;11.30;99.90;;;;;;5074256;28;20161;-73
2023/10/24 09:34:21;;;;;;;18.73;11.48;;;11.30;99.90;;;;;;5092882;28;20048;-66
2023/10/24 09:36:48;;;;;;;14.68;11.02;;;11.30;99.90;;;;;;5076453;28;20056;-69
2023/10/24 09:39:15;;;;;;;15.75;10.55;;;11.30;99.90;;;;;;5058718;28;20306;-70
2023/10/24 09:41:41;;;;;;;15.70;11.25;;;11.30;99.90;;;;;;5091465;28;20160;-71
2023/10/24 09:44:07;;;;;;;18.67;11.10;;;11.30;99.90;;;;;;5077914;28;20055;-70
2023/10/24 09:46:35;;;;;;;15.02;10.57;;;11.30;99.90;;;;;;5074935;28;20044;-71
2023/10/24 09:49:01;;;;;;;17.95;11.00;;;11.20;99.90;;;;;;5077993;28;20185;-71
2023/10/24 09:51:28;;;;;;;15.38;10.18;;;11.30;99.90;;;;;;5091505;28;20541;-72
2023/10/24 09:53:54;;;;;;;16.73;10.13;;;11.20;99.90;;;;;;5091454;28;20039;-73
2023/10/24 09:56:21;;;;;;;15.25;11.10;;;11.30;99.90;;;;;;5091522;28;20150;-70
2023/10/24 09:58:47;;;;;;;14.35;10.50;;;11.30;99.90;;;;;;5091866;28;20052;-70
2023/10/24 10:01:12;;;;;;;15.15;9.57;;;11.30;99.90;;;;;;5090488;28;20036;-70
2023/10/24 10:03:38;;;;;;;13.75;8.32;;;11.40;99.90;;;;;;5091013;28;20102;-71
2023/10/24 10:06:08;;;;;;;15.70;10.93;;;11.30;99.90;;;;;;5082999;28;20040;-70
2023/10/24 10:08:36;;;;;;;13.20;9.60;;;11.30;99.90;;;;;;5021409;28;28160;-70
2023/10/24 10:11:06;;;;;;;14.57;10.30;;;11.30;99.90;;;;;;5067271;28;20566;-70
2023/10/24 10:13:48;;;;;;;10.32;7.43;;;11.30;99.90;;;;;;5071760;28;20151;-70
2023/10/24 10:17:00;;;;;;;13.82;8.95;;;11.30;99.90;;;;;;5034401;28;20056;-69
2023/10/24 10:19:53;;;;;;;16.13;10.90;;;11.30;99.90;;;;;;5069980;28;20491;-69
2023/10/24 10:22:41;;;;;;;14.93;10.70;;;11.30;99.90;;;;;;5067963;28;20622;-69
2023/10/24 10:25:22;;;;;;;14.75;10.30;;;11.30;99.90;;;;;;5070285;28;20452;-69
2023/10/24 10:27:58;;;;;;;16.52;10.50;;;11.30;99.90;;;;;;5075993;28;20067;-69
2023/10/24 10:30:36;;;;;;;13.63;10.43;;;11.30;99.90;;;;;;5064064;28;20049;-69
2023/10/24 10:33:15;;;;;;;18.63;10.60;;;11.30;99.90;;;;;;5057955;28;20040;-73
2023/10/24 10:35:53;;;;;;;14.90;10.85;;;11.30;99.90;;;;;;5061479;28;20117;-70
2023/10/24 10:38:38;;;;;;;13.70;10.70;;;11.30;99.90;;;;;;5070577;28;20055;-70
2023/10/24 10:41:22;;;;;;;14.82;10.65;;;11.30;99.90;;;;;;5070356;28;20048;-70
2023/10/24 10:43:48;;;;;;;14.13;10.45;;;11.30;99.90;;;;;;5073856;28;20159;-70
2023/10/24 10:46:18;;;;;;;12.25;9.75;;;11.40;99.90;;;;;;5065226;28;20116;-70
2023/10/24 10:48:44;;;;;;;13.77;9.70;;;11.40;99.90;;;;;;5067857;28;20043;-71
2023/10/24 10:51:15;;;;;;;10.98;8.15;;;11.40;99.90;;;;;;5069443;28;20044;-70
2023/10/24 10:53:52;;;;;;;12.52;9.80;;;11.40;99.90;;;;;;5043018;28;20068;-70
2023/10/24 10:56:30;;;;;;;13.90;10.05;;;11.50;99.90;;;;;;5069455;28;20052;-70
2023/10/24 10:59:08;;;;;;;14.55;9.65;;;11.50;99.90;;;;;;5062679;28;20414;-70
2023/10/24 11:01:45;;;;;;;12.40;9.93;;;11.50;99.90;;;;;;5071098;28;20044;-70
2023/10/24 11:04:14;;;;;;;14.35;10.23;;;11.60;99.90;;;;;;5070965;28;20127;-70
2023/10/24 11:06:56;;;;;;;13.63;10.80;;;11.60;99.90;;;;;;5068542;28;20508;-70
2023/10/24 11:09:27;;;;;;;14.07;10.50;;;11.60;99.90;;;;;;5070658;28;20159;-70
2023/10/24 11:12:20;;;;;;;12.38;9.68;;;11.70;99.90;;;;;;5067163;28;20205;-69
2023/10/24 11:15:19;;;;;;;11.70;8.15;;;11.70;99.90;;;;;;5063251;28;20057;-69
2023/10/24 11:17:46;;;;;;;14.48;10.48;;;11.70;99.90;;;;;;5069348;28;20132;-69
2023/10/24 11:20:11;;;;;;;15.25;9.98;;;11.80;99.90;;;;;;5069152;28;20405;-70
2023/10/24 11:22:38;;;;;;;13.68;10.60;;;11.80;99.90;;;;;;5063756;28;20044;-71
2023/10/24 11:25:15;;;;;;;14.18;9.32;;;11.80;99.90;;;;;;5069605;28;20045;-70
2023/10/24 11:27:41;;;;;;;13.63;9.10;;;11.80;99.90;;;;;;5069670;28;20048;-70
2023/10/24 11:30:08;;;;;;;13.93;9.18;;;11.90;99.90;;;;;;5066751;28;20161;-73
2023/10/24 11:32:34;;;;;;;13.25;11.20;;;11.90;99.90;;;;;;5054405;28;20033;-70
2023/10/24 11:35:03;;;;;;;15.57;10.65;;;11.90;99.90;;;;;;5066285;28;20072;-71
2023/10/24 11:37:29;;;;;;;15.07;11.23;;;11.90;99.90;;;;;;5067240;28;20051;-70
2023/10/24 11:39:57;;;;;;;13.38;9.10;;;11.90;99.90;;;;;;5064295;28;20207;-72
2023/10/24 11:42:23;;;;;;;13.75;10.13;;;11.90;99.90;;;;;;5060205;28;20044;-70
2023/10/24 11:44:48;;;;;;;13.35;10.15;;;11.90;99.90;;;;;;5063096;28;20040;-69
2023/10/24 11:47:15;;;;;;;12.88;9.80;;;11.90;99.90;;;;;;5057148;28;20346;-70
2023/10/24 11:49:40;;;;;;;12.50;9.45;;;11.90;99.90;;;;;;5069751;28;20093;-70
2023/10/24 11:52:06;;;;;;;13.82;10.70;;;12.00;99.90;;;;;;5072007;28;20557;-70
2023/10/24 11:54:32;;;;;;;11.20;9.38;;;12.00;99.90;;;;;;5066828;28;20054;-70
2023/10/24 11:56:59;;;;;;;12.40;8.45;;;12.00;99.90;;;;;;5071520;28;20393;-71
2023/10/24 11:59:33;;;;;;;12.77;9.82;;;12.00;99.90;;;;;;5069230;28;20462;-70
2023/10/24 12:02:01;;;;;;;16.40;9.93;;;12.00;99.90;;;;;;5072238;28;20044;-70
2023/10/24 12:04:26;;;;;;;12.50;10.30;;;12.00;99.90;;;;;;5063199;28;20051;-70
2023/10/24 12:07:14;;;;;;;13.68;10.63;;;12.00;99.90;;;;;;5073747;28;20037;-71
2023/10/24 12:09:39;;;;;;;14.25;10.43;;;12.00;99.90;;;;;;5067896;28;20124;-70
2023/10/24 12:12:06;;;;;;;13.60;10.15;;;12.00;99.90;;;;;;5073717;28;20135;-70
2023/10/24 12:14:35;;;;;;;13.85;10.20;;;12.00;99.90;;;;;;5073200;28;20605;-70
2023/10/24 12:17:01;;;;;;;12.73;9.85;;;12.00;99.90;;;;;;5072381;28;20055;-71
2023/10/24 12:19:27;;;;;;;11.40;8.80;;;11.90;99.90;;;;;;5066859;28;20054;-70
2023/10/24 12:21:56;;;;;;;14.02;10.60;;;12.00;99.90;;;;;;5069901;28;20131;-70
2023/10/24 12:24:21;;;;;;;12.70;10.07;;;11.90;99.90;;;;;;5069622;28;20048;-71
2023/10/24 12:26:48;;;;;;;14.98;10.68;;;11.90;99.90;;;;;;5068637;28;20490;-72
2023/10/24 12:29:13;;;;;;;17.92;8.93;;;11.90;99.90;;;;;;5065659;28;20051;-71
2023/10/24 12:31:40;;;;;;;13.05;10.02;;;12.00;99.90;;;;;;5053727;28;20127;-71